Chester le Street, United Kingdom
Current Conditions -  °F | °C
As of 1:20 AM on Friday 19 Dec 2014 (Local Time) from EGNT Reporting Station
Clear Clear  
Wind Chill: 33°   Ceiling: Unl
Heat Index: 43°   Visibility: 6mi
Dew Point: 36°   Wind: 25mph
Humidity: 76%   Direction: 270°W
Pressure: 29.5"   Gusts: NA
Location:  54.9°N, 1.58°W
Report Text: EGNT 190120Z 27022KT CAVOK 06/02 Q0999
Loading
Personal Weather Stations






























Interactive Weather Map New forecast layout! Learn more

10-Day Weather Forecast

Advertisements
Track Severe Weather on mobile